sensor_id;sensor_type;location;lat;lon;timestamp;temperature;humidity
6429;DHT22;3247;48.946;10.220;2023-06-26T00:01:02;14.00;99.90
6429;DHT22;3247;48.946;10.220;2023-06-26T00:03:27;14.00;99.90
6429;DHT22;3247;48.946;10.220;2023-06-26T00:05:54;14.00;99.90
6429;DHT22;3247;48.946;10.220;2023-06-26T00:08:19;13.90;99.90
6429;DHT22;3247;48.946;10.220;2023-06-26T00:10:45;13.80;99.90
6429;DHT22;3247;48.946;10.220;2023-06-26T00:13:11;13.80;99.90
6429;DHT22;3247;48.946;10.220;2023-06-26T00:15:37;13.80;99.90
6429;DHT22;3247;48.946;10.220;2023-06-26T00:18:03;13.80;99.90
6429;DHT22;3247;48.946;10.220;2023-06-26T00:20:28;13.80;99.90
6429;DHT22;3247;48.946;10.220;2023-06-26T00:22:54;13.80;99.90
6429;DHT22;3247;48.946;10.220;2023-06-26T00:25:20;13.80;99.90
6429;DHT22;3247;48.946;10.220;2023-06-26T00:27:51;13.60;99.90
6429;DHT22;3247;48.946;10.220;2023-06-26T00:30:16;13.70;99.90
6429;DHT22;3247;48.946;10.220;2023-06-26T00:32:42;13.60;99.90
6429;DHT22;3247;48.946;10.220;2023-06-26T00:35:07;13.60;99.90
6429;DHT22;3247;48.946;10.220;2023-06-26T00:37:33;13.50;99.90
6429;DHT22;3247;48.946;10.220;2023-06-26T00:39:58;13.40;99.90
6429;DHT22;3247;48.946;10.220;2023-06-26T00:42:23;13.40;99.90
6429;DHT22;3247;48.946;10.220;2023-06-26T00:44:49;13.40;99.90
6429;DHT22;3247;48.946;10.220;2023-06-26T00:47:15;13.30;99.90
6429;DHT22;3247;48.946;10.220;2023-06-26T00:49:41;13.30;99.90
6429;DHT22;3247;48.946;10.220;2023-06-26T00:52:06;13.30;99.90
6429;DHT22;3247;48.946;10.220;2023-06-26T00:54:32;13.30;99.90
6429;DHT22;3247;48.946;10.220;2023-06-26T00:56:58;13.20;99.90
6429;DHT22;3247;48.946;10.220;2023-06-26T00:59:23;13.20;99.90
6429;DHT22;3247;48.946;10.220;2023-06-26T01:01:49;13.20;99.90
6429;DHT22;3247;48.946;10.220;2023-06-26T01:04:14;13.10;99.90
6429;DHT22;3247;48.946;10.220;2023-06-26T01:06:46;13.20;99.90
6429;DHT22;3247;48.946;10.220;2023-06-26T01:09:16;13.10;99.90
6429;DHT22;3247;48.946;10.220;2023-06-26T01:11:42;13.00;99.90
6429;DHT22;3247;48.946;10.220;2023-06-26T01:14:07;13.00;99.90
6429;DHT22;3247;48.946;10.220;2023-06-26T01:16:33;13.00;99.90
6429;DHT22;3247;48.946;10.220;2023-06-26T01:18:59;12.90;99.90
6429;DHT22;3247;48.946;10.220;2023-06-26T01:21:24;12.80;99.90
6429;DHT22;3247;48.946;10.220;2023-06-26T01:23:58;12.80;99.90
6429;DHT22;3247;48.946;10.220;2023-06-26T01:26:34;12.70;99.90
6429;DHT22;3247;48.946;10.220;2023-06-26T01:29:02;12.60;99.90
6429;DHT22;3247;48.946;10.220;2023-06-26T01:31:29;12.60;99.90
6429;DHT22;3247;48.946;10.220;2023-06-26T01:33:56;12.60;99.90
6429;DHT22;3247;48.946;10.220;2023-06-26T01:36:21;12.70;99.90
6429;DHT22;3247;48.946;10.220;2023-06-26T01:38:47;12.70;99.90
6429;DHT22;3247;48.946;10.220;2023-06-26T01:41:13;12.70;99.90
6429;DHT22;3247;48.946;10.220;2023-06-26T01:46:23;12.80;99.90
6429;DHT22;3247;48.946;10.220;2023-06-26T01:48:54;12.80;99.90
6429;DHT22;3247;48.946;10.220;2023-06-26T01:51:21;12.70;99.90
6429;DHT22;3247;48.946;10.220;2023-06-26T01:53:52;12.70;99.90
6429;DHT22;3247;48.946;10.220;2023-06-26T01:56:18;12.70;99.90
6429;DHT22;3247;48.946;10.220;2023-06-26T01:58:45;12.70;99.90
6429;DHT22;3247;48.946;10.220;2023-06-26T02:01:11;12.70;99.90
6429;DHT22;3247;48.946;10.220;2023-06-26T02:03:37;12.70;99.90
6429;DHT22;3247;48.946;10.220;2023-06-26T02:06:02;12.80;99.90
6429;DHT22;3247;48.946;10.220;2023-06-26T02:08:28;12.80;99.90
6429;DHT22;3247;48.946;10.220;2023-06-26T02:10:53;12.70;99.90
6429;DHT22;3247;48.946;10.220;2023-06-26T02:13:19;12.70;99.90
6429;DHT22;3247;48.946;10.220;2023-06-26T02:15:44;12.60;99.90
6429;DHT22;3247;48.946;10.220;2023-06-26T02:18:10;12.60;99.90
6429;DHT22;3247;48.946;10.220;2023-06-26T02:20:35;12.60;99.90
6429;DHT22;3247;48.946;10.220;2023-06-26T02:23:01;12.60;99.90
6429;DHT22;3247;48.946;10.220;2023-06-26T02:25:26;12.60;99.90
6429;DHT22;3247;48.946;10.220;2023-06-26T02:27:52;12.50;99.90
6429;DHT22;3247;48.946;10.220;2023-06-26T02:30:17;12.50;99.90
6429;DHT22;3247;48.946;10.220;2023-06-26T02:32:43;12.50;99.90
6429;DHT22;3247;48.946;10.220;2023-06-26T02:35:08;12.40;99.90
6429;DHT22;3247;48.946;10.220;2023-06-26T02:37:34;12.40;99.90
6429;DHT22;3247;48.946;10.220;2023-06-26T02:39:59;12.40;99.90
6429;DHT22;3247;48.946;10.220;2023-06-26T02:42:25;12.30;99.90
6429;DHT22;3247;48.946;10.220;2023-06-26T02:44:50;12.30;99.90
6429;DHT22;3247;48.946;10.220;2023-06-26T02:47:15;12.30;99.90
6429;DHT22;3247;48.946;10.220;2023-06-26T02:49:41;12.20;99.90
6429;DHT22;3247;48.946;10.220;2023-06-26T02:52:06;12.20;99.90
6429;DHT22;3247;48.946;10.220;2023-06-26T02:54:32;12.20;99.90
6429;DHT22;3247;48.946;10.220;2023-06-26T02:56:58;12.20;99.90
6429;DHT22;3247;48.946;10.220;2023-06-26T02:59:24;12.10;99.90
6429;DHT22;3247;48.946;10.220;2023-06-26T03:01:50;12.10;99.90
6429;DHT22;3247;48.946;10.220;2023-06-26T03:04:15;12.10;99.90
6429;DHT22;3247;48.946;10.220;2023-06-26T03:06:43;12.00;99.90
6429;DHT22;3247;48.946;10.220;2023-06-26T03:09:08;12.00;99.90
6429;DHT22;3247;48.946;10.220;2023-06-26T03:11:34;12.00;99.90
6429;DHT22;3247;48.946;10.220;2023-06-26T03:13:59;12.00;99.90
6429;DHT22;3247;48.946;10.220;2023-06-26T03:16:25;12.10;99.90
6429;DHT22;3247;48.946;10.220;2023-06-26T03:18:50;12.00;99.90
6429;DHT22;3247;48.946;10.220;2023-06-26T03:21:17;12.00;99.90
6429;DHT22;3247;48.946;10.220;2023-06-26T03:23:42;12.00;99.90
6429;DHT22;3247;48.946;10.220;2023-06-26T03:26:08;12.10;99.90
6429;DHT22;3247;48.946;10.220;2023-06-26T03:28:33;12.00;99.90
6429;DHT22;3247;48.946;10.220;2023-06-26T03:30:59;12.00;99.90
6429;DHT22;3247;48.946;10.220;2023-06-26T03:33:24;12.00;99.90
6429;DHT22;3247;48.946;10.220;2023-06-26T03:35:50;12.10;99.90
6429;DHT22;3247;48.946;10.220;2023-06-26T03:38:15;12.10;99.90
6429;DHT22;3247;48.946;10.220;2023-06-26T03:40:40;12.10;99.90
6429;DHT22;3247;48.946;10.220;2023-06-26T03:43:06;12.20;99.90
6429;DHT22;3247;48.946;10.220;2023-06-26T03:45:31;12.30;99.90
6429;DHT22;3247;48.946;10.220;2023-06-26T03:47:57;12.30;99.90
6429;DHT22;3247;48.946;10.220;2023-06-26T03:50:23;12.40;99.90
6429;DHT22;3247;48.946;10.220;2023-06-26T03:52:48;12.40;99.90
6429;DHT22;3247;48.946;10.220;2023-06-26T03:55:15;12.40;99.90
6429;DHT22;3247;48.946;10.220;2023-06-26T03:57:46;12.60;99.90
6429;DHT22;3247;48.946;10.220;2023-06-26T04:00:12;12.70;99.90
6429;DHT22;3247;48.946;10.220;2023-06-26T04:02:38;12.80;99.90
6429;DHT22;3247;48.946;10.220;2023-06-26T04:05:04;13.00;99.90
6429;DHT22;3247;48.946;10.220;2023-06-26T04:07:30;13.10;99.90
6429;DHT22;3247;48.946;10.220;2023-06-26T04:09:56;13.20;99.90
6429;DHT22;3247;48.946;10.220;2023-06-26T04:12:22;13.30;99.90
6429;DHT22;3247;48.946;10.220;2023-06-26T04:14:47;13.70;99.90
6429;DHT22;3247;48.946;10.220;2023-06-26T04:17:13;14.20;99.90
6429;DHT22;3247;48.946;10.220;2023-06-26T04:19:38;15.00;99.90
6429;DHT22;3247;48.946;10.220;2023-06-26T04:22:03;15.80;99.90
6429;DHT22;3247;48.946;10.220;2023-06-26T04:24:29;16.40;99.90
6429;DHT22;3247;48.946;10.220;2023-06-26T04:26:58;17.10;99.90
6429;DHT22;3247;48.946;10.220;2023-06-26T04:29:25;17.60;99.90
6429;DHT22;3247;48.946;10.220;2023-06-26T04:31:51;18.20;99.90
6429;DHT22;3247;48.946;10.220;2023-06-26T04:34:16;19.00;99.90
6429;DHT22;3247;48.946;10.220;2023-06-26T04:36:42;19.60;99.90
6429;DHT22;3247;48.946;10.220;2023-06-26T04:39:11;20.10;99.90
6429;DHT22;3247;48.946;10.220;2023-06-26T04:41:37;20.30;99.90
6429;DHT22;3247;48.946;10.220;2023-06-26T04:44:02;21.00;99.90
6429;DHT22;3247;48.946;10.220;2023-06-26T04:46:28;21.80;99.90
6429;DHT22;3247;48.946;10.220;2023-06-26T04:48:53;22.30;99.90
6429;DHT22;3247;48.946;10.220;2023-06-26T04:51:19;22.50;99.90
6429;DHT22;3247;48.946;10.220;2023-06-26T04:53:46;22.80;99.90
6429;DHT22;3247;48.946;10.220;2023-06-26T04:56:14;22.90;99.90
6429;DHT22;3247;48.946;10.220;2023-06-26T04:58:40;23.50;99.90
6429;DHT22;3247;48.946;10.220;2023-06-26T05:01:05;23.80;99.90
6429;DHT22;3247;48.946;10.220;2023-06-26T05:03:32;24.30;99.90
6429;DHT22;3247;48.946;10.220;2023-06-26T05:05:57;24.80;99.90
6429;DHT22;3247;48.946;10.220;2023-06-26T05:08:23;24.80;99.90
6429;DHT22;3247;48.946;10.220;2023-06-26T05:10:49;25.10;99.90
6429;DHT22;3247;48.946;10.220;2023-06-26T05:13:15;25.90;99.90
6429;DHT22;3247;48.946;10.220;2023-06-26T05:18:47;25.40;99.90
6429;DHT22;3247;48.946;10.220;2023-06-26T05:21:13;25.30;99.90
6429;DHT22;3247;48.946;10.220;2023-06-26T05:23:39;26.60;99.90
6429;DHT22;3247;48.946;10.220;2023-06-26T05:26:04;26.50;99.90
6429;DHT22;3247;48.946;10.220;2023-06-26T05:28:30;26.30;99.90
6429;DHT22;3247;48.946;10.220;2023-06-26T05:30:59;27.70;99.90
6429;DHT22;3247;48.946;10.220;2023-06-26T05:33:25;28.60;99.90
6429;DHT22;3247;48.946;10.220;2023-06-26T05:35:51;28.20;99.90
6429;DHT22;3247;48.946;10.220;2023-06-26T05:38:17;29.20;99.90
6429;DHT22;3247;48.946;10.220;2023-06-26T05:40:45;28.80;99.90
6429;DHT22;3247;48.946;10.220;2023-06-26T05:43:10;30.40;99.10
6429;DHT22;3247;48.946;10.220;2023-06-26T05:45:36;30.90;97.40
6429;DHT22;3247;48.946;10.220;2023-06-26T05:48:01;31.60;95.40
6429;DHT22;3247;48.946;10.220;2023-06-26T05:50:27;31.20;95.00
6429;DHT22;3247;48.946;10.220;2023-06-26T05:52:53;32.00;93.80
6429;DHT22;3247;48.946;10.220;2023-06-26T05:55:18;32.70;92.90
6429;DHT22;3247;48.946;10.220;2023-06-26T05:57:45;33.00;91.30
6429;DHT22;3247;48.946;10.220;2023-06-26T06:00:11;33.80;87.20
6429;DHT22;3247;48.946;10.220;2023-06-26T06:02:37;33.80;81.50
6429;DHT22;3247;48.946;10.220;2023-06-26T06:05:02;35.00;76.50
6429;DHT22;3247;48.946;10.220;2023-06-26T06:07:28;35.50;76.50
6429;DHT22;3247;48.946;10.220;2023-06-26T06:09:53;36.40;74.10
6429;DHT22;3247;48.946;10.220;2023-06-26T06:12:19;36.30;75.30
6429;DHT22;3247;48.946;10.220;2023-06-26T06:14:44;36.00;77.00
6429;DHT22;3247;48.946;10.220;2023-06-26T06:17:10;35.90;74.80
6429;DHT22;3247;48.946;10.220;2023-06-26T06:19:35;35.30;73.90
6429;DHT22;3247;48.946;10.220;2023-06-26T06:22:00;36.20;73.10
6429;DHT22;3247;48.946;10.220;2023-06-26T06:24:26;37.00;69.80
6429;DHT22;3247;48.946;10.220;2023-06-26T06:26:51;36.50;68.40
6429;DHT22;3247;48.946;10.220;2023-06-26T06:29:17;36.80;67.60
6429;DHT22;3247;48.946;10.220;2023-06-26T06:31:44;36.70;68.60
6429;DHT22;3247;48.946;10.220;2023-06-26T06:34:09;37.60;65.00
6429;DHT22;3247;48.946;10.220;2023-06-26T06:36:35;38.40;63.90
6429;DHT22;3247;48.946;10.220;2023-06-26T06:39:00;38.20;64.50
6429;DHT22;3247;48.946;10.220;2023-06-26T06:41:26;38.60;62.30
6429;DHT22;3247;48.946;10.220;2023-06-26T06:43:51;38.50;61.10
6429;DHT22;3247;48.946;10.220;2023-06-26T06:46:16;38.90;59.50
6429;DHT22;3247;48.946;10.220;2023-06-26T06:48:42;39.00;59.20
6429;DHT22;3247;48.946;10.220;2023-06-26T06:51:07;38.40;59.30
6429;DHT22;3247;48.946;10.220;2023-06-26T06:53:33;37.60;60.30
6429;DHT22;3247;48.946;10.220;2023-06-26T06:56:03;38.30;59.40
6429;DHT22;3247;48.946;10.220;2023-06-26T06:58:29;38.20;58.90
6429;DHT22;3247;48.946;10.220;2023-06-26T07:00:56;38.30;58.30
6429;DHT22;3247;48.946;10.220;2023-06-26T07:03:21;38.50;58.30
6429;DHT22;3247;48.946;10.220;2023-06-26T07:05:47;38.40;58.40
6429;DHT22;3247;48.946;10.220;2023-06-26T07:08:12;38.70;57.70
6429;DHT22;3247;48.946;10.220;2023-06-26T07:10:38;39.30;56.90
6429;DHT22;3247;48.946;10.220;2023-06-26T07:13:03;38.40;57.50
6429;DHT22;3247;48.946;10.220;2023-06-26T07:15:29;38.90;57.30
6429;DHT22;3247;48.946;10.220;2023-06-26T07:17:54;38.80;57.00
6429;DHT22;3247;48.946;10.220;2023-06-26T07:20:20;38.60;56.90
6429;DHT22;3247;48.946;10.220;2023-06-26T07:22:45;38.70;56.60
6429;DHT22;3247;48.946;10.220;2023-06-26T07:25:12;38.70;56.80
6429;DHT22;3247;48.946;10.220;2023-06-26T07:27:38;39.10;57.10
6429;DHT22;3247;48.946;10.220;2023-06-26T07:30:04;39.20;56.80
6429;DHT22;3247;48.946;10.220;2023-06-26T07:32:29;39.50;56.20
6429;DHT22;3247;48.946;10.220;2023-06-26T07:34:55;40.60;55.00
6429;DHT22;3247;48.946;10.220;2023-06-26T07:37:21;41.10;54.40
6429;DHT22;3247;48.946;10.220;2023-06-26T07:39:47;40.60;54.80
6429;DHT22;3247;48.946;10.220;2023-06-26T07:42:12;40.60;54.10
6429;DHT22;3247;48.946;10.220;2023-06-26T07:44:38;40.60;53.80
6429;DHT22;3247;48.946;10.220;2023-06-26T07:47:03;40.20;54.30
6429;DHT22;3247;48.946;10.220;2023-06-26T07:49:29;40.50;54.30
6429;DHT22;3247;48.946;10.220;2023-06-26T07:51:54;41.30;52.90
6429;DHT22;3247;48.946;10.220;2023-06-26T07:54:20;41.40;52.40
6429;DHT22;3247;48.946;10.220;2023-06-26T07:59:24;41.20;52.70
6429;DHT22;3247;48.946;10.220;2023-06-26T08:01:50;41.50;52.20
6429;DHT22;3247;48.946;10.220;2023-06-26T08:04:15;41.20;52.50
6429;DHT22;3247;48.946;10.220;2023-06-26T08:06:41;40.90;53.00
6429;DHT22;3247;48.946;10.220;2023-06-26T08:09:06;41.50;52.00
6429;DHT22;3247;48.946;10.220;2023-06-26T08:11:33;41.20;51.50
6429;DHT22;3247;48.946;10.220;2023-06-26T08:13:58;41.70;51.40
6429;DHT22;3247;48.946;10.220;2023-06-26T08:16:24;41.20;51.50
6429;DHT22;3247;48.946;10.220;2023-06-26T08:18:49;41.50;50.80
6429;DHT22;3247;48.946;10.220;2023-06-26T08:21:15;41.80;50.90
6429;DHT22;3247;48.946;10.220;2023-06-26T08:23:40;41.60;51.50
6429;DHT22;3247;48.946;10.220;2023-06-26T08:26:06;41.10;51.20
6429;DHT22;3247;48.946;10.220;2023-06-26T08:28:31;41.00;51.10
6429;DHT22;3247;48.946;10.220;2023-06-26T08:30:57;40.10;52.10
6429;DHT22;3247;48.946;10.220;2023-06-26T08:33:22;39.90;51.40
6429;DHT22;3247;48.946;10.220;2023-06-26T08:35:47;39.70;52.40
6429;DHT22;3247;48.946;10.220;2023-06-26T08:38:13;39.70;52.60
6429;DHT22;3247;48.946;10.220;2023-06-26T08:40:38;39.30;53.00
6429;DHT22;3247;48.946;10.220;2023-06-26T08:43:04;38.60;53.30
6429;DHT22;3247;48.946;10.220;2023-06-26T08:45:30;38.70;53.60
6429;DHT22;3247;48.946;10.220;2023-06-26T08:47:56;38.70;53.60
6429;DHT22;3247;48.946;10.220;2023-06-26T08:50:24;39.10;52.90
6429;DHT22;3247;48.946;10.220;2023-06-26T08:55:18;38.80;52.70
6429;DHT22;3247;48.946;10.220;2023-06-26T08:57:44;38.50;53.30
6429;DHT22;3247;48.946;10.220;2023-06-26T09:00:10;38.40;52.60
6429;DHT22;3247;48.946;10.220;2023-06-26T09:02:36;38.20;53.40
6429;DHT22;3247;48.946;10.220;2023-06-26T09:05:02;38.30;53.60
6429;DHT22;3247;48.946;10.220;2023-06-26T09:07:28;38.00;53.30
6429;DHT22;3247;48.946;10.220;2023-06-26T09:09:53;38.00;53.70
6429;DHT22;3247;48.946;10.220;2023-06-26T09:12:19;38.00;53.60
6429;DHT22;3247;48.946;10.220;2023-06-26T09:14:45;37.90;53.90
6429;DHT22;3247;48.946;10.220;2023-06-26T09:17:12;37.90;53.60
6429;DHT22;3247;48.946;10.220;2023-06-26T09:19:38;37.90;53.90
6429;DHT22;3247;48.946;10.220;2023-06-26T09:22:03;38.00;54.40
6429;DHT22;3247;48.946;10.220;2023-06-26T09:24:29;38.00;54.10
6429;DHT22;3247;48.946;10.220;2023-06-26T09:26:55;37.60;55.00
6429;DHT22;3247;48.946;10.220;2023-06-26T09:29:20;37.60;54.30
6429;DHT22;3247;48.946;10.220;2023-06-26T09:31:46;37.20;54.90
6429;DHT22;3247;48.946;10.220;2023-06-26T09:34:11;37.50;55.20
6429;DHT22;3247;48.946;10.220;2023-06-26T09:36:37;37.20;54.80
6429;DHT22;3247;48.946;10.220;2023-06-26T09:39:03;37.00;55.20
6429;DHT22;3247;48.946;10.220;2023-06-26T09:41:36;36.80;55.50
6429;DHT22;3247;48.946;10.220;2023-06-26T09:44:02;36.90;55.60
6429;DHT22;3247;48.946;10.220;2023-06-26T09:46:28;36.70;55.70
6429;DHT22;3247;48.946;10.220;2023-06-26T09:49:12;37.00;55.40
6429;DHT22;3247;48.946;10.220;2023-06-26T09:51:38;37.20;55.60
6429;DHT22;3247;48.946;10.220;2023-06-26T09:54:04;37.30;55.70
6429;DHT22;3247;48.946;10.220;2023-06-26T09:56:30;37.10;54.80
6429;DHT22;3247;48.946;10.220;2023-06-26T09:58:56;37.10;55.30
6429;DHT22;3247;48.946;10.220;2023-06-26T10:01:23;37.50;55.80
6429;DHT22;3247;48.946;10.220;2023-06-26T10:03:48;37.30;55.20
6429;DHT22;3247;48.946;10.220;2023-06-26T10:06:13;37.50;55.60
6429;DHT22;3247;48.946;10.220;2023-06-26T10:08:40;37.30;55.40
6429;DHT22;3247;48.946;10.220;2023-06-26T10:11:07;37.10;55.10
6429;DHT22;3247;48.946;10.220;2023-06-26T10:13:35;36.80;55.30
6429;DHT22;3247;48.946;10.220;2023-06-26T10:16:02;36.60;55.60
6429;DHT22;3247;48.946;10.220;2023-06-26T10:18:28;36.60;55.40
6429;DHT22;3247;48.946;10.220;2023-06-26T10:20:56;36.60;55.80
6429;DHT22;3247;48.946;10.220;2023-06-26T10:23:23;36.50;56.10
6429;DHT22;3247;48.946;10.220;2023-06-26T10:25:48;36.40;55.70
6429;DHT22;3247;48.946;10.220;2023-06-26T10:28:34;36.10;55.40
6429;DHT22;3247;48.946;10.220;2023-06-26T10:31:01;36.40;56.00
6429;DHT22;3247;48.946;10.220;2023-06-26T10:33:28;36.30;55.10
6429;DHT22;3247;48.946;10.220;2023-06-26T10:35:54;36.60;55.00
6429;DHT22;3247;48.946;10.220;2023-06-26T10:38:55;37.00;55.30
6429;DHT22;3247;48.946;10.220;2023-06-26T10:41:22;36.80;54.90
6429;DHT22;3247;48.946;10.220;2023-06-26T10:43:51;37.00;55.10
6429;DHT22;3247;48.946;10.220;2023-06-26T10:46:17;36.50;53.40
6429;DHT22;3247;48.946;10.220;2023-06-26T10:48:55;36.50;53.70
6429;DHT22;3247;48.946;10.220;2023-06-26T10:51:21;36.60;53.90
6429;DHT22;3247;48.946;10.220;2023-06-26T10:53:50;36.40;53.70
6429;DHT22;3247;48.946;10.220;2023-06-26T10:56:18;36.20;53.60
6429;DHT22;3247;48.946;10.220;2023-06-26T10:58:44;36.30;52.50
6429;DHT22;3247;48.946;10.220;2023-06-26T11:03:37;36.10;55.10
6429;DHT22;3247;48.946;10.220;2023-06-26T11:06:10;36.00;55.30
6429;DHT22;3247;48.946;10.220;2023-06-26T11:08:49;35.20;55.30
6429;DHT22;3247;48.946;10.220;2023-06-26T11:11:14;35.20;55.00
6429;DHT22;3247;48.946;10.220;2023-06-26T11:13:40;34.90;55.90
6429;DHT22;3247;48.946;10.220;2023-06-26T11:16:05;34.40;56.30
6429;DHT22;3247;48.946;10.220;2023-06-26T11:18:31;34.00;56.90
6429;DHT22;3247;48.946;10.220;2023-06-26T11:21:04;34.10;56.90
6429;DHT22;3247;48.946;10.220;2023-06-26T11:23:29;34.40;57.10
6429;DHT22;3247;48.946;10.220;2023-06-26T11:25:57;34.30;58.00
6429;DHT22;3247;48.946;10.220;2023-06-26T11:28:23;34.00;58.20
6429;DHT22;3247;48.946;10.220;2023-06-26T11:30:49;33.70;58.80
6429;DHT22;3247;48.946;10.220;2023-06-26T11:33:15;34.00;58.80
6429;DHT22;3247;48.946;10.220;2023-06-26T11:35:40;33.40;58.50
6429;DHT22;3247;48.946;10.220;2023-06-26T11:38:06;33.80;59.50
6429;DHT22;3247;48.946;10.220;2023-06-26T11:40:35;33.30;59.60
6429;DHT22;3247;48.946;10.220;2023-06-26T11:43:01;32.90;60.00
6429;DHT22;3247;48.946;10.220;2023-06-26T11:45:30;33.20;59.80
6429;DHT22;3247;48.946;10.220;2023-06-26T11:47:56;33.60;59.80
6429;DHT22;3247;48.946;10.220;2023-06-26T11:50:22;33.80;60.10
6429;DHT22;3247;48.946;10.220;2023-06-26T11:52:53;34.00;59.90
6429;DHT22;3247;48.946;10.220;2023-06-26T11:55:20;33.70;60.00
6429;DHT22;3247;48.946;10.220;2023-06-26T11:57:49;33.90;59.50
6429;DHT22;3247;48.946;10.220;2023-06-26T12:00:16;33.80;59.00
6429;DHT22;3247;48.946;10.220;2023-06-26T12:02:42;33.80;59.40
6429;DHT22;3247;48.946;10.220;2023-06-26T12:05:08;33.90;59.40
6429;DHT22;3247;48.946;10.220;2023-06-26T12:07:34;33.90;60.10
6429;DHT22;3247;48.946;10.220;2023-06-26T12:10:02;33.80;60.50
6429;DHT22;3247;48.946;10.220;2023-06-26T12:12:27;34.00;61.20
6429;DHT22;3247;48.946;10.220;2023-06-26T12:14:53;34.10;60.70
6429;DHT22;3247;48.946;10.220;2023-06-26T12:17:21;34.10;60.90
6429;DHT22;3247;48.946;10.220;2023-06-26T12:19:47;34.20;60.50
6429;DHT22;3247;48.946;10.220;2023-06-26T12:22:13;33.80;60.30
6429;DHT22;3247;48.946;10.220;2023-06-26T12:24:39;34.30;60.80
6429;DHT22;3247;48.946;10.220;2023-06-26T12:27:14;33.90;60.20
6429;DHT22;3247;48.946;10.220;2023-06-26T12:29:41;33.70;60.40
6429;DHT22;3247;48.946;10.220;2023-06-26T12:32:10;33.50;60.30
6429;DHT22;3247;48.946;10.220;2023-06-26T12:34:36;33.50;60.00
6429;DHT22;3247;48.946;10.220;2023-06-26T12:37:02;33.40;60.40
6429;DHT22;3247;48.946;10.220;2023-06-26T12:39:29;33.20;61.00
6429;DHT22;3247;48.946;10.220;2023-06-26T12:42:00;33.00;61.20
6429;DHT22;3247;48.946;10.220;2023-06-26T12:44:26;33.10;62.00
6429;DHT22;3247;48.946;10.220;2023-06-26T12:46:56;33.20;61.60
6429;DHT22;3247;48.946;10.220;2023-06-26T12:49:29;33.10;61.80
6429;DHT22;3247;48.946;10.220;2023-06-26T12:51:54;33.20;62.60
6429;DHT22;3247;48.946;10.220;2023-06-26T12:54:20;33.30;60.90
6429;DHT22;3247;48.946;10.220;2023-06-26T12:56:48;33.40;61.00
6429;DHT22;3247;48.946;10.220;2023-06-26T12:59:14;33.50;60.70
6429;DHT22;3247;48.946;10.220;2023-06-26T13:01:39;33.50;61.20
6429;DHT22;3247;48.946;10.220;2023-06-26T13:04:05;33.30;61.40
6429;DHT22;3247;48.946;10.220;2023-06-26T13:06:30;33.00;62.50
6429;DHT22;3247;48.946;10.220;2023-06-26T13:08:57;33.00;62.60
6429;DHT22;3247;48.946;10.220;2023-06-26T13:11:22;32.90;63.80
6429;DHT22;3247;48.946;10.220;2023-06-26T13:13:48;32.80;64.30
6429;DHT22;3247;48.946;10.220;2023-06-26T13:16:14;33.10;64.40
6429;DHT22;3247;48.946;10.220;2023-06-26T13:18:39;33.10;64.00
6429;DHT22;3247;48.946;10.220;2023-06-26T13:21:04;33.10;65.20
6429;DHT22;3247;48.946;10.220;2023-06-26T13:23:30;32.90;65.10
6429;DHT22;3247;48.946;10.220;2023-06-26T13:26:02;32.90;66.20
6429;DHT22;3247;48.946;10.220;2023-06-26T13:28:27;33.10;66.00
6429;DHT22;3247;48.946;10.220;2023-06-26T13:30:53;33.00;65.00
6429;DHT22;3247;48.946;10.220;2023-06-26T13:33:18;33.30;64.80
6429;DHT22;3247;48.946;10.220;2023-06-26T13:35:43;32.70;65.10
6429;DHT22;3247;48.946;10.220;2023-06-26T13:38:09;33.50;66.50
6429;DHT22;3247;48.946;10.220;2023-06-26T13:40:34;33.10;66.10
6429;DHT22;3247;48.946;10.220;2023-06-26T13:43:00;33.10;66.40
6429;DHT22;3247;48.946;10.220;2023-06-26T13:45:25;33.10;67.00
6429;DHT22;3247;48.946;10.220;2023-06-26T13:47:51;32.90;67.70
6429;DHT22;3247;48.946;10.220;2023-06-26T13:50:16;32.80;67.90
6429;DHT22;3247;48.946;10.220;2023-06-26T13:52:42;32.80;67.90
6429;DHT22;3247;48.946;10.220;2023-06-26T13:55:07;32.70;68.30
6429;DHT22;3247;48.946;10.220;2023-06-26T13:57:33;32.60;69.30
6429;DHT22;3247;48.946;10.220;2023-06-26T13:59:58;32.60;69.50
6429;DHT22;3247;48.946;10.220;2023-06-26T14:02:24;32.70;70.10
6429;DHT22;3247;48.946;10.220;2023-06-26T14:04:50;32.60;68.00
6429;DHT22;3247;48.946;10.220;2023-06-26T14:07:15;32.50;68.80
6429;DHT22;3247;48.946;10.220;2023-06-26T14:09:40;32.50;68.60
6429;DHT22;3247;48.946;10.220;2023-06-26T14:12:07;32.00;69.10
6429;DHT22;3247;48.946;10.220;2023-06-26T14:14:32;32.20;69.80
6429;DHT22;3247;48.946;10.220;2023-06-26T14:16:58;32.10;70.50
6429;DHT22;3247;48.946;10.220;2023-06-26T14:19:24;32.20;71.00
6429;DHT22;3247;48.946;10.220;2023-06-26T14:21:50;31.90;71.20
6429;DHT22;3247;48.946;10.220;2023-06-26T14:24:15;31.90;71.70
6429;DHT22;3247;48.946;10.220;2023-06-26T14:26:41;31.80;72.00
6429;DHT22;3247;48.946;10.220;2023-06-26T14:29:06;31.80;72.20
6429;DHT22;3247;48.946;10.220;2023-06-26T14:31:32;31.60;72.90
6429;DHT22;3247;48.946;10.220;2023-06-26T14:33:57;31.50;73.20
6429;DHT22;3247;48.946;10.220;2023-06-26T14:36:24;31.40;73.10
6429;DHT22;3247;48.946;10.220;2023-06-26T14:38:50;31.60;73.20
6429;DHT22;3247;48.946;10.220;2023-06-26T14:41:15;31.80;71.90
6429;DHT22;3247;48.946;10.220;2023-06-26T14:43:41;31.80;72.00
6429;DHT22;3247;48.946;10.220;2023-06-26T14:46:06;31.90;72.00
6429;DHT22;3247;48.946;10.220;2023-06-26T14:48:31;31.80;71.80
6429;DHT22;3247;48.946;10.220;2023-06-26T14:50:57;31.80;72.60
6429;DHT22;3247;48.946;10.220;2023-06-26T14:53:22;31.50;73.20
6429;DHT22;3247;48.946;10.220;2023-06-26T14:55:48;32.20;73.80
6429;DHT22;3247;48.946;10.220;2023-06-26T14:58:13;31.60;73.50
6429;DHT22;3247;48.946;10.220;2023-06-26T15:00:39;31.60;73.30
6429;DHT22;3247;48.946;10.220;2023-06-26T15:03:04;31.60;72.80
6429;DHT22;3247;48.946;10.220;2023-06-26T15:05:30;31.40;73.20
6429;DHT22;3247;48.946;10.220;2023-06-26T15:07:55;31.40;73.30
6429;DHT22;3247;48.946;10.220;2023-06-26T15:10:21;31.20;71.90
6429;DHT22;3247;48.946;10.220;2023-06-26T15:12:46;31.30;71.70
6429;DHT22;3247;48.946;10.220;2023-06-26T15:15:12;31.40;71.00
6429;DHT22;3247;48.946;10.220;2023-06-26T15:17:38;31.40;71.60
6429;DHT22;3247;48.946;10.220;2023-06-26T15:20:04;31.20;71.40
6429;DHT22;3247;48.946;10.220;2023-06-26T15:22:29;31.20;68.10
6429;DHT22;3247;48.946;10.220;2023-06-26T15:24:55;31.00;67.20
6429;DHT22;3247;48.946;10.220;2023-06-26T15:27:20;31.00;67.50
6429;DHT22;3247;48.946;10.220;2023-06-26T15:29:46;31.00;66.90
6429;DHT22;3247;48.946;10.220;2023-06-26T15:32:11;30.90;66.70
6429;DHT22;3247;48.946;10.220;2023-06-26T15:34:37;30.70;65.20
6429;DHT22;3247;48.946;10.220;2023-06-26T15:37:02;30.70;66.20
6429;DHT22;3247;48.946;10.220;2023-06-26T15:39:28;30.50;67.10
6429;DHT22;3247;48.946;10.220;2023-06-26T15:41:53;30.50;66.80
6429;DHT22;3247;48.946;10.220;2023-06-26T15:44:19;30.30;65.90
6429;DHT22;3247;48.946;10.220;2023-06-26T15:46:44;30.10;66.20
6429;DHT22;3247;48.946;10.220;2023-06-26T15:49:09;30.30;68.40
6429;DHT22;3247;48.946;10.220;2023-06-26T15:51:35;30.00;68.50